createdAt,value
2022-07-27T00:01:25.762Z,0.88
2022-07-27T00:03:52.410Z,0.95
2022-07-27T00:06:18.998Z,1.08
2022-07-27T00:08:45.610Z,1.00
2022-07-27T00:11:12.220Z,1.13
2022-07-27T00:13:38.838Z,1.15
2022-07-27T00:16:05.555Z,1.27
2022-07-27T00:18:32.149Z,0.80
2022-07-27T00:20:58.630Z,1.02
2022-07-27T00:23:25.404Z,0.90
2022-07-27T00:25:52.577Z,1.00
2022-07-27T00:28:19.065Z,1.20
2022-07-27T00:30:45.550Z,0.90
2022-07-27T00:33:12.077Z,1.00
2022-07-27T00:35:43.522Z,1.27
2022-07-27T00:38:10.059Z,1.10
2022-07-27T00:40:36.558Z,1.30
2022-07-27T00:43:03.218Z,1.10
2022-07-27T00:45:29.869Z,1.02
2022-07-27T00:47:56.374Z,0.90
2022-07-27T00:50:23.372Z,0.93
2022-07-27T00:52:49.943Z,0.70
2022-07-27T00:55:16.463Z,1.00
2022-07-27T00:57:58.525Z,1.10
2022-07-27T01:00:26.987Z,1.00
2022-07-27T01:02:53.636Z,0.98
2022-07-27T01:05:20.572Z,1.23
2022-07-27T01:07:48.289Z,1.30
2022-07-27T01:10:14.777Z,1.27
2022-07-27T01:12:41.302Z,1.30
2022-07-27T01:15:08.596Z,0.95
2022-07-27T01:17:35.542Z,1.50
2022-07-27T01:20:02.049Z,1.30
2022-07-27T01:22:28.609Z,1.10
2022-07-27T01:24:55.108Z,1.27
2022-07-27T01:27:21.614Z,1.27
2022-07-27T01:29:48.219Z,1.15
2022-07-27T01:32:14.740Z,1.52
2022-07-27T01:34:41.241Z,1.00
2022-07-27T01:37:08.055Z,1.80
2022-07-27T01:39:34.571Z,1.20
2022-07-27T01:42:01.148Z,1.60
2022-07-27T01:44:27.663Z,1.50
2022-07-27T01:46:54.267Z,1.50
2022-07-27T01:49:20.890Z,1.10
2022-07-27T01:51:47.393Z,1.20
2022-07-27T01:54:13.972Z,1.35
2022-07-27T01:56:40.739Z,1.42
2022-07-27T01:59:07.232Z,1.02
2022-07-27T02:01:33.867Z,1.25
2022-07-27T02:04:00.439Z,1.38
2022-07-27T02:06:26.939Z,1.25
2022-07-27T02:08:53.453Z,1.13
2022-07-27T02:11:38.628Z,1.05
2022-07-27T02:14:05.121Z,1.55
2022-07-27T02:16:31.814Z,1.20
2022-07-27T02:18:58.370Z,1.33
2022-07-27T02:21:24.959Z,1.02
2022-07-27T02:23:51.444Z,1.08
2022-07-27T02:26:17.946Z,1.10
2022-07-27T02:28:44.427Z,1.10
2022-07-27T02:31:10.936Z,1.10
2022-07-27T02:33:37.419Z,0.90
2022-07-27T02:36:04.117Z,1.20
2022-07-27T02:38:30.619Z,1.08
2022-07-27T02:40:57.112Z,1.02
2022-07-27T02:43:23.621Z,1.25
2022-07-27T02:45:50.480Z,1.25
2022-07-27T02:48:17.437Z,1.10
2022-07-27T02:50:44.232Z,1.17
2022-07-27T02:53:10.778Z,1.27
2022-07-27T02:55:41.777Z,1.00
2022-07-27T02:58:08.352Z,1.10
2022-07-27T03:00:35.196Z,1.15
2022-07-27T03:03:01.858Z,1.40
2022-07-27T03:05:28.423Z,0.98
2022-07-27T03:07:54.920Z,1.20
2022-07-27T03:10:21.550Z,1.02
2022-07-27T03:12:48.041Z,1.02
2022-07-27T03:15:14.530Z,1.08
2022-07-27T03:17:41.234Z,1.10
2022-07-27T03:20:10.594Z,1.25
2022-07-27T03:22:37.269Z,0.98
2022-07-27T03:25:04.001Z,0.95
2022-07-27T03:27:30.498Z,1.20
2022-07-27T03:29:57.909Z,1.10
2022-07-27T03:32:24.405Z,1.42
2022-07-27T03:34:50.914Z,0.90
2022-07-27T03:37:18.960Z,1.30
2022-07-27T03:39:45.557Z,1.00
2022-07-27T03:42:12.886Z,1.13
2022-07-27T03:44:39.392Z,1.10
2022-07-27T03:47:05.914Z,1.23
2022-07-27T03:49:32.479Z,0.82
2022-07-27T03:51:59.063Z,0.80
2022-07-27T03:54:25.618Z,1.13
2022-07-27T03:56:52.095Z,0.93
2022-07-27T03:59:18.652Z,0.95
2022-07-27T04:01:45.934Z,1.10
2022-07-27T04:04:12.561Z,1.40
2022-07-27T04:06:39.048Z,1.38
2022-07-27T04:09:08.758Z,1.35
2022-07-27T04:11:37.006Z,1.02
2022-07-27T04:14:09.947Z,1.23
2022-07-27T04:16:39.482Z,1.13
2022-07-27T04:19:06.382Z,0.90
2022-07-27T04:21:33.564Z,1.13
2022-07-27T04:24:01.368Z,0.75
2022-07-27T04:26:28.139Z,1.00
2022-07-27T04:28:54.626Z,0.80
2022-07-27T04:31:21.646Z,1.20
2022-07-27T04:33:48.250Z,0.82
2022-07-27T04:36:14.728Z,1.02
2022-07-27T04:38:41.223Z,1.35
2022-07-27T04:41:07.754Z,1.10
2022-07-27T04:43:34.238Z,1.27
2022-07-27T04:46:03.091Z,1.45
2022-07-27T04:48:29.716Z,1.02
2022-07-27T04:50:56.244Z,1.05
2022-07-27T04:53:22.722Z,1.30
2022-07-27T04:55:49.232Z,1.08
2022-07-27T04:58:15.835Z,1.58
2022-07-27T05:00:43.507Z,1.42
2022-07-27T05:03:10.268Z,1.30
2022-07-27T05:05:36.872Z,1.23
2022-07-27T05:08:04.546Z,0.93
2022-07-27T05:10:31.081Z,1.10
2022-07-27T05:12:58.205Z,1.13
2022-07-27T05:15:24.795Z,1.10
2022-07-27T05:17:52.293Z,1.40
2022-07-27T05:20:18.816Z,1.45
2022-07-27T05:22:45.347Z,1.58
2022-07-27T05:25:11.883Z,1.42
2022-07-27T05:27:54.717Z,1.48
2022-07-27T05:30:22.042Z,1.48
2022-07-27T05:32:48.831Z,1.42
2022-07-27T05:35:15.333Z,1.23
2022-07-27T05:37:41.860Z,1.30
2022-07-27T05:40:08.932Z,1.23
2022-07-27T05:42:35.440Z,1.65
2022-07-27T05:45:01.942Z,1.50
2022-07-27T05:47:28.427Z,1.35
2022-07-27T05:49:55.056Z,1.70
2022-07-27T05:52:21.568Z,1.77
2022-07-27T05:54:48.117Z,1.63
2022-07-27T05:57:15.556Z,1.45
2022-07-27T05:59:42.063Z,1.40
2022-07-27T06:02:09.040Z,1.42
2022-07-27T06:04:35.988Z,1.25
2022-07-27T06:07:20.996Z,1.42
2022-07-27T06:09:47.499Z,1.35
2022-07-27T06:12:13.990Z,1.58
2022-07-27T06:14:40.530Z,1.35
2022-07-27T06:17:07.637Z,1.20
2022-07-27T06:19:36.379Z,1.20
2022-07-27T06:22:03.399Z,1.10
2022-07-27T06:24:30.140Z,1.40
2022-07-27T06:26:56.625Z,1.40
2022-07-27T06:29:23.128Z,1.30
2022-07-27T06:31:49.683Z,1.35
2022-07-27T06:34:16.253Z,1.40
2022-07-27T06:36:45.149Z,1.40
2022-07-27T06:39:13.411Z,1.55
2022-07-27T06:41:57.926Z,1.50
2022-07-27T06:44:24.861Z,1.65
2022-07-27T06:46:51.398Z,1.73
2022-07-27T06:49:18.357Z,1.50
2022-07-27T06:51:45.025Z,1.15
2022-07-27T06:54:11.536Z,1.52
2022-07-27T06:56:38.427Z,1.25
2022-07-27T06:59:04.916Z,1.50
2022-07-27T07:01:31.438Z,1.40
2022-07-27T07:03:59.724Z,1.40
2022-07-27T07:06:26.617Z,1.30
2022-07-27T07:08:53.108Z,1.67
2022-07-27T07:11:19.632Z,1.52
2022-07-27T07:13:46.119Z,1.50
2022-07-27T07:16:13.323Z,1.60
2022-07-27T07:18:39.846Z,1.25
2022-07-27T07:21:06.400Z,1.10
2022-07-27T07:23:32.930Z,0.90
2022-07-27T07:25:59.420Z,1.48
2022-07-27T07:28:25.928Z,1.30
2022-07-27T07:30:52.415Z,1.02
2022-07-27T07:33:18.894Z,1.20
2022-07-27T07:36:12.684Z,0.90
2022-07-27T07:38:31.932Z,1.02
2022-07-27T07:40:59.510Z,0.90
2022-07-27T07:43:26.973Z,1.25
2022-07-27T07:45:53.475Z,0.93
2022-07-27T07:48:23.493Z,1.00
2022-07-27T07:50:52.404Z,0.90
2022-07-27T07:53:20.853Z,1.15
2022-07-27T07:55:47.370Z,1.40
2022-07-27T07:58:13.867Z,1.00
2022-07-27T08:00:43.718Z,1.35
2022-07-27T08:03:10.349Z,1.02
2022-07-27T08:05:37.578Z,1.02
2022-07-27T08:08:04.247Z,0.93
2022-07-27T08:10:30.770Z,1.10
2022-07-27T08:12:57.313Z,0.90
2022-07-27T08:15:34.932Z,1.10
2022-07-27T08:18:02.381Z,1.25
2022-07-27T08:20:29.079Z,0.98
2022-07-27T08:22:55.592Z,1.10
2022-07-27T08:25:22.156Z,0.95
2022-07-27T08:27:48.646Z,0.90
2022-07-27T08:30:15.330Z,0.85
2022-07-27T08:32:55.024Z,0.80
2022-07-27T08:35:21.754Z,1.33
2022-07-27T08:37:48.273Z,0.70
2022-07-27T08:43:01.673Z,1.10
2022-07-27T08:45:29.435Z,0.93
2022-07-27T08:47:55.920Z,0.90
2022-07-27T08:50:25.311Z,1.20
2022-07-27T08:53:04.967Z,0.73
2022-07-27T08:55:32.564Z,1.58
2022-07-27T08:58:03.145Z,1.25
2022-07-27T09:00:30.551Z,1.10
2022-07-27T09:02:57.118Z,1.00
2022-07-27T09:05:23.710Z,1.02
2022-07-27T09:07:50.236Z,1.30
2022-07-27T09:10:33.251Z,0.80
2022-07-27T09:12:59.812Z,0.90
2022-07-27T09:15:34.166Z,0.65
2022-07-27T09:18:01.314Z,0.80
2022-07-27T09:20:28.047Z,0.95
2022-07-27T09:22:55.360Z,1.10
2022-07-27T09:25:38.737Z,1.05
2022-07-27T09:28:09.325Z,0.60
2022-07-27T09:30:44.016Z,0.60
2022-07-27T09:33:10.874Z,1.13
2022-07-27T09:35:37.869Z,1.08
2022-07-27T09:38:17.379Z,0.65
2022-07-27T09:40:43.911Z,0.90
2022-07-27T09:43:52.312Z,0.80
2022-07-27T09:46:06.138Z,0.73
2022-07-27T09:48:34.216Z,1.08
2022-07-27T09:51:07.368Z,0.90
2022-07-27T09:53:49.185Z,0.70
2022-07-27T09:56:17.580Z,0.90
2022-07-27T09:58:47.697Z,0.80
2022-07-27T10:01:19.363Z,0.63
2022-07-27T10:03:46.207Z,0.70
2022-07-27T10:06:12.711Z,0.80
2022-07-27T10:08:40.814Z,0.82
2022-07-27T10:11:07.539Z,0.90
2022-07-27T10:13:34.664Z,0.70
2022-07-27T10:16:18.417Z,0.75
2022-07-27T10:18:55.795Z,0.82
2022-07-27T10:21:23.228Z,0.80
2022-07-27T10:24:01.370Z,0.82
2022-07-27T10:26:36.460Z,0.85
2022-07-27T10:29:17.129Z,0.60
2022-07-27T10:31:53.063Z,0.70
2022-07-27T10:34:42.958Z,0.80
2022-07-27T10:37:13.230Z,0.90
2022-07-27T10:42:21.371Z,1.00
2022-07-27T10:45:02.179Z,0.63
2022-07-27T10:47:37.605Z,0.70
2022-07-27T10:50:16.202Z,0.90
2022-07-27T10:52:44.723Z,0.63
2022-07-27T10:55:29.547Z,0.70
2022-07-27T10:57:57.047Z,0.70
2022-07-27T11:00:54.961Z,0.77
2022-07-27T11:03:34.828Z,0.70
2022-07-27T11:07:04.665Z,0.50
2022-07-27T11:10:15.780Z,0.50
2022-07-27T11:11:53.610Z,0.60
2022-07-27T11:14:30.778Z,0.90
2022-07-27T11:17:12.298Z,1.02
2022-07-27T11:19:45.462Z,0.60
2022-07-27T11:22:28.289Z,0.60
2022-07-27T11:24:55.647Z,0.82
2022-07-27T11:27:25.233Z,0.60
2022-07-27T11:29:52.023Z,0.80
2022-07-27T11:32:19.092Z,1.08
2022-07-27T11:34:45.775Z,0.70
2022-07-27T11:37:14.052Z,1.13
2022-07-27T11:42:39.308Z,0.80
2022-07-27T11:45:06.446Z,0.70
2022-07-27T11:47:34.048Z,0.70
2022-07-27T11:50:07.835Z,0.88
2022-07-27T11:52:34.418Z,0.47
2022-07-27T11:55:00.906Z,0.63
2022-07-27T11:57:31.246Z,1.00
2022-07-27T11:59:57.743Z,0.85
2022-07-27T12:02:27.145Z,0.73
2022-07-27T12:04:57.868Z,0.80
2022-07-27T12:07:30.112Z,0.90
2022-07-27T12:10:17.601Z,0.70
2022-07-27T12:12:48.515Z,0.75
2022-07-27T12:15:44.704Z,0.93
2022-07-27T12:18:05.867Z,0.75
2022-07-27T12:20:33.698Z,0.75
2022-07-27T12:23:07.100Z,0.60
2022-07-27T12:25:35.058Z,0.90
2022-07-27T12:28:04.423Z,0.70
2022-07-27T12:30:38.121Z,0.80
2022-07-27T12:33:06.390Z,0.85
2022-07-27T12:35:47.174Z,0.98
2022-07-27T12:38:13.928Z,0.95
2022-07-27T12:40:47.139Z,0.98
2022-07-27T12:43:21.563Z,0.70
2022-07-27T12:45:49.056Z,0.70
2022-07-27T12:48:26.741Z,0.82
2022-07-27T12:51:00.751Z,0.55
2022-07-27T12:53:27.373Z,0.82
2022-07-27T12:55:59.172Z,0.73
2022-07-27T12:58:25.685Z,0.80
2022-07-27T13:00:52.357Z,0.70
2022-07-27T13:03:18.955Z,1.00
2022-07-27T13:05:45.442Z,0.90
2022-07-27T13:08:12.083Z,0.90
2022-07-27T13:10:44.337Z,0.85
2022-07-27T13:13:10.904Z,0.77
2022-07-27T13:15:37.572Z,1.10
2022-07-27T13:18:04.136Z,0.80
2022-07-27T13:20:30.691Z,1.00
2022-07-27T13:22:57.208Z,0.75
2022-07-27T13:25:23.710Z,0.93
2022-07-27T13:27:50.265Z,0.80
2022-07-27T13:30:17.527Z,0.88
2022-07-27T13:32:44.045Z,0.90
2022-07-27T13:35:13.993Z,0.93
2022-07-27T13:37:40.667Z,0.90
2022-07-27T13:40:08.274Z,0.90
2022-07-27T13:42:34.784Z,0.95
2022-07-27T13:45:09.050Z,1.02
2022-07-27T13:47:36.196Z,0.80
2022-07-27T13:50:03.482Z,1.05
2022-07-27T13:52:30.088Z,1.00
2022-07-27T13:54:56.853Z,0.90
2022-07-27T13:57:23.548Z,0.82
2022-07-27T13:59:50.048Z,0.90
2022-07-27T14:02:16.692Z,1.45
2022-07-27T14:04:49.607Z,0.93
2022-07-27T14:07:16.658Z,1.08
2022-07-27T14:10:01.749Z,0.95
2022-07-27T14:12:28.346Z,0.90
2022-07-27T14:14:54.827Z,0.90
2022-07-27T14:17:21.315Z,0.85
2022-07-27T14:19:47.812Z,0.95
2022-07-27T14:22:14.312Z,0.80
2022-07-27T14:24:40.916Z,0.98
2022-07-27T14:27:07.421Z,1.10
2022-07-27T14:29:34.172Z,1.10
2022-07-27T14:32:00.792Z,0.80
2022-07-27T14:34:27.614Z,1.00
2022-07-27T14:36:54.098Z,1.02
2022-07-27T14:39:20.582Z,0.70
2022-07-27T14:41:47.326Z,0.80
2022-07-27T14:44:14.098Z,0.80
2022-07-27T14:46:40.719Z,0.73
2022-07-27T14:49:08.491Z,0.82
2022-07-27T14:51:35.672Z,0.77
2022-07-27T14:54:03.952Z,0.90
2022-07-27T14:56:30.490Z,0.80
2022-07-27T14:58:57.144Z,0.90
2022-07-27T15:01:23.767Z,0.80
2022-07-27T15:03:50.300Z,0.90
2022-07-27T15:06:17.293Z,0.82
2022-07-27T15:08:43.876Z,0.68
2022-07-27T15:11:11.046Z,0.70
2022-07-27T15:13:37.584Z,0.90
2022-07-27T15:16:04.500Z,0.55
2022-07-27T15:18:35.068Z,0.65
2022-07-27T15:21:12.525Z,0.70
2022-07-27T15:23:40.933Z,0.75
2022-07-27T15:26:07.434Z,0.73
2022-07-27T15:28:34.090Z,0.80
2022-07-27T15:31:00.637Z,1.00
2022-07-27T15:33:27.163Z,0.80
2022-07-27T15:35:53.830Z,0.70
2022-07-27T15:38:20.380Z,0.90
2022-07-27T15:40:47.424Z,0.73
2022-07-27T15:43:16.025Z,0.75
2022-07-27T15:45:45.343Z,0.70
2022-07-27T15:48:12.010Z,0.60
2022-07-27T15:50:39.202Z,0.80
2022-07-27T15:53:06.824Z,0.88
2022-07-27T15:55:34.089Z,0.80
2022-07-27T15:58:00.734Z,0.90
2022-07-27T16:00:27.285Z,1.00
2022-07-27T16:02:55.484Z,0.60
2022-07-27T16:05:23.901Z,0.80
2022-07-27T16:07:50.429Z,0.90
2022-07-27T16:10:16.946Z,0.90
2022-07-27T16:12:43.485Z,1.02
2022-07-27T16:15:10.486Z,0.90
2022-07-27T16:17:37.007Z,0.93
2022-07-27T16:20:04.311Z,0.75
2022-07-27T16:22:32.455Z,1.02
2022-07-27T16:24:59.607Z,0.70
2022-07-27T16:27:26.170Z,1.00
2022-07-27T16:29:52.717Z,1.00
2022-07-27T16:32:19.228Z,1.00
2022-07-27T16:34:46.195Z,1.30
2022-07-27T16:37:12.736Z,0.75
2022-07-27T16:39:39.576Z,0.95
2022-07-27T16:42:06.178Z,1.00
2022-07-27T16:44:32.679Z,0.98
2022-07-27T16:46:59.270Z,1.00
2022-07-27T16:49:36.513Z,1.23
2022-07-27T16:52:04.364Z,1.10
2022-07-27T16:54:35.585Z,1.40
2022-07-27T16:57:05.684Z,1.00
2022-07-27T16:59:32.171Z,1.27
2022-07-27T17:01:58.770Z,1.35
2022-07-27T17:04:25.448Z,1.35
2022-07-27T17:06:52.053Z,1.05
2022-07-27T17:09:18.593Z,1.20
2022-07-27T17:11:45.144Z,1.02
2022-07-27T17:14:14.390Z,1.67
2022-07-27T17:16:41.240Z,1.10
2022-07-27T17:19:07.899Z,1.20
2022-07-27T17:21:34.511Z,1.10
2022-07-27T17:24:01.061Z,1.08
2022-07-27T17:26:27.699Z,1.00
2022-07-27T17:28:54.195Z,1.00
2022-07-27T17:31:21.314Z,1.50
2022-07-27T17:33:47.992Z,1.30
2022-07-27T17:36:15.521Z,1.00
2022-07-27T17:38:45.752Z,0.90
2022-07-27T17:41:12.755Z,1.15
2022-07-27T17:43:39.294Z,0.98
2022-07-27T17:46:07.721Z,1.27
2022-07-27T17:48:35.416Z,0.95
2022-07-27T17:51:10.896Z,1.10
2022-07-27T17:53:37.670Z,1.10
2022-07-27T17:56:04.899Z,0.90
2022-07-27T17:58:31.547Z,0.98
2022-07-27T18:00:58.253Z,1.10
2022-07-27T18:03:24.780Z,0.90
2022-07-27T18:05:51.300Z,1.10
2022-07-27T18:08:18.334Z,1.02
2022-07-27T18:10:44.860Z,1.00
2022-07-27T18:13:11.726Z,0.95
2022-07-27T18:15:47.277Z,1.30
2022-07-27T18:18:33.076Z,1.00
2022-07-27T18:21:01.558Z,0.77
2022-07-27T18:23:28.152Z,1.45
2022-07-27T18:25:55.101Z,1.00
2022-07-27T18:28:21.794Z,0.80
2022-07-27T18:30:49.203Z,0.90
2022-07-27T18:33:15.786Z,1.27
2022-07-27T18:35:43.154Z,1.10
2022-07-27T18:38:10.252Z,1.17
2022-07-27T18:40:37.315Z,1.20
2022-07-27T18:43:07.766Z,1.20
2022-07-27T18:45:34.944Z,0.95
2022-07-27T18:48:01.547Z,1.58
2022-07-27T18:50:28.076Z,1.25
2022-07-27T18:52:54.575Z,1.10
2022-07-27T18:55:24.980Z,1.00
2022-07-27T18:57:52.666Z,1.70
2022-07-27T19:00:22.758Z,1.02
2022-07-27T19:02:51.402Z,1.10
2022-07-27T19:05:32.524Z,1.00
2022-07-27T19:08:11.336Z,1.20
2022-07-27T19:10:40.372Z,1.20
2022-07-27T19:13:07.376Z,1.45
2022-07-27T19:15:33.895Z,1.38
2022-07-27T19:18:01.626Z,1.73
2022-07-27T19:20:28.478Z,1.10
2022-07-27T19:22:55.218Z,1.40
2022-07-27T19:25:23.639Z,1.05
2022-07-27T19:27:50.174Z,1.20
2022-07-27T19:30:16.701Z,1.67
2022-07-27T19:32:44.764Z,1.52
2022-07-27T19:35:12.093Z,2.38
2022-07-27T19:37:39.456Z,1.85
2022-07-27T19:40:33.383Z,1.85
2022-07-27T19:42:54.205Z,1.63
2022-07-27T19:45:20.733Z,1.10
2022-07-27T19:47:47.276Z,1.20
2022-07-27T19:50:13.767Z,1.30
2022-07-27T19:52:40.258Z,1.20
2022-07-27T19:55:07.060Z,1.38
2022-07-27T19:57:33.568Z,1.25
2022-07-27T20:00:02.529Z,1.45
2022-07-27T20:02:29.137Z,1.70
2022-07-27T20:04:55.688Z,1.20
2022-07-27T20:07:22.184Z,1.20
2022-07-27T20:09:48.722Z,1.17
2022-07-27T20:12:15.237Z,1.15
2022-07-27T20:14:41.929Z,1.63
2022-07-27T20:17:09.086Z,1.20
2022-07-27T20:19:35.670Z,1.60
2022-07-27T20:22:02.329Z,1.23
2022-07-27T20:24:29.355Z,1.17
2022-07-27T20:26:56.619Z,1.40
2022-07-27T20:29:23.307Z,1.27
2022-07-27T20:31:50.141Z,1.05
2022-07-27T20:34:19.148Z,1.10
2022-07-27T20:36:45.653Z,1.40
2022-07-27T20:39:17.197Z,1.10
2022-07-27T20:41:44.150Z,1.40
2022-07-27T20:44:10.652Z,1.48
2022-07-27T20:46:37.153Z,1.30
2022-07-27T20:49:04.346Z,1.50
2022-07-27T20:51:30.891Z,1.33
2022-07-27T20:53:58.313Z,1.40
2022-07-27T20:56:24.837Z,1.02
2022-07-27T20:58:51.940Z,1.45
2022-07-27T21:01:18.609Z,1.63
2022-07-27T21:03:45.139Z,1.23
2022-07-27T21:06:11.692Z,1.60
2022-07-27T21:08:41.573Z,1.15
2022-07-27T21:11:10.931Z,1.23
2022-07-27T21:13:37.441Z,1.30
2022-07-27T21:16:04.136Z,1.80
2022-07-27T21:18:30.748Z,1.10
2022-07-27T21:20:57.280Z,1.23
2022-07-27T21:23:42.426Z,1.05
2022-07-27T21:26:08.978Z,1.50
2022-07-27T21:28:35.752Z,1.48
2022-07-27T21:31:02.766Z,1.08
2022-07-27T21:33:29.296Z,1.60
2022-07-27T21:35:55.837Z,1.27
2022-07-27T21:38:22.356Z,1.40
2022-07-27T21:40:49.574Z,1.30
2022-07-27T21:43:16.078Z,1.45
2022-07-27T21:45:49.453Z,1.98
2022-07-27T21:48:16.453Z,1.38
2022-07-27T21:50:43.027Z,1.35
2022-07-27T21:53:09.559Z,1.42
2022-07-27T21:55:38.362Z,1.42
2022-07-27T21:58:04.865Z,1.55
2022-07-27T22:00:31.700Z,1.80
2022-07-27T22:02:58.205Z,1.35
2022-07-27T22:05:24.894Z,1.35
2022-07-27T22:07:51.846Z,1.50
2022-07-27T22:10:18.692Z,1.42
2022-07-27T22:12:45.320Z,1.30
2022-07-27T22:15:11.881Z,1.52
2022-07-27T22:17:50.115Z,1.50
2022-07-27T22:20:18.019Z,1.17
2022-07-27T22:22:44.574Z,1.40
2022-07-27T22:25:11.093Z,1.42
2022-07-27T22:27:37.593Z,1.23
2022-07-27T22:30:04.553Z,1.60
2022-07-27T22:32:31.057Z,1.63
2022-07-27T22:34:57.546Z,1.40
2022-07-27T22:37:24.057Z,1.60
2022-07-27T22:39:50.661Z,1.40
2022-07-27T22:42:17.171Z,1.30
2022-07-27T22:44:43.777Z,1.70
2022-07-27T22:47:10.331Z,1.38
2022-07-27T22:49:36.927Z,1.33
2022-07-27T22:52:06.588Z,1.60
2022-07-27T22:54:36.683Z,1.33
2022-07-27T22:57:04.032Z,1.30
2022-07-27T22:59:30.862Z,1.40
2022-07-27T23:01:57.487Z,1.30
2022-07-27T23:04:24.093Z,1.50
2022-07-27T23:06:50.621Z,1.50
2022-07-27T23:09:17.206Z,1.77
2022-07-27T23:11:44.086Z,1.38
2022-07-27T23:14:11.906Z,1.77
2022-07-27T23:16:38.814Z,1.45
2022-07-27T23:19:05.345Z,1.58
2022-07-27T23:21:31.878Z,1.58
2022-07-27T23:23:58.380Z,1.88
2022-07-27T23:26:26.059Z,1.60
2022-07-27T23:28:53.411Z,1.40
2022-07-27T23:31:20.015Z,1.48
2022-07-27T23:33:47.003Z,1.30
2022-07-27T23:36:13.720Z,1.52
2022-07-27T23:38:40.459Z,1.65
2022-07-27T23:41:06.977Z,1.45
2022-07-27T23:43:33.489Z,1.35
2022-07-27T23:46:00.009Z,1.92
2022-07-27T23:48:26.875Z,1.23
2022-07-27T23:50:55.422Z,1.20
2022-07-27T23:53:21.979Z,1.20
2022-07-27T23:55:48.495Z,1.27
2022-07-27T23:58:14.995Z,1.48
